Airfield :
LOGIN :

Register | Disclaimer

   EN    FR    IT 

 










Legend :    VFR   Marginal VFR   IFR   Intensive IFR   Very Intensive IFR
Visi :
Ceiling :
>= 8 km
>= 3000ft
5 to 8 km
1000 to 3000 ft
1500m to 5 km
500 to 1000 ft
800 to 1500m
200 to 500 ft
< 800m
< 200 ft
Symbols :   Thunderstorms  Fog  Heavy snow  Heavy precipitations  Wind > 20 kt
SIGMETs :     Misc.  Thunderstorms  Icing  Turbulence  Mountain Waves  Volcanic Ashes






- Airport Elevation : 325 ft
- IATA code : BES


LFRB - Brest

CURRENT METAR :
  • 241300Z AUTO 30017G28KT 260V320 9999 1800 +RA SCT029/// BKN038/// BKN064/// ///CB 06/00 Q1002 TEMPO 29025G45KT 3000 SHRAGS BKN010 BKN015CB

EXPIRED METARs :
  • 241230Z AUTO 29015KT 250V330 9999 BKN032/// BKN046/// BKN058/// ///CB 07/02 Q1001 TEMPO 29025G45KT 3000 SHRAGS BKN010 BKN015CB
  • 241200Z AUTO 28011KT 250V310 9999 FEW033/// BKN042/// BKN050/// ///CB 07/04 Q1001 TEMPO 29025G45KT 3000 SHRAGS BKN010 BKN015CB
  • 241130Z AUTO 29014G24KT 9000 -RA FEW008/// SCT028/// BKN033/// ///CB 05/02 Q1001 TEMPO 29025G45KT 3000 SHRAGS BKN010 BKN015CB
  • 241100Z AUTO 28009KT 240V310 9999 ///TCU 07/02 Q1001 TEMPO 29025G45KT 3000 SHRAGS BKN010 BKN015CB
  • 241030Z AUTO 30011KT 270V330 9999 FEW021/// SCT029/// BKN070/// ///CB 07/03 Q1001 TEMPO 29025G45KT 3000 SHRAGS BKN010 BKN015CB

TAF TAF LFRB
Valid from the 24 at 12:00 until the 25 at 18:00 UTC


241100Z 2412/2518 28015G30KT 9999 BKN025
TEMPO 2412/2418 3000 SHRAGS BKN010 BKN015CB
TEMPO 2412/2421 29025G45KT
PROB30
TEMPO 2418/2424 4000 SHRAGS BKN020TCU
BECMG 2421/2424 33015G25KT
BECMG 2500/2503 34013KT
BECMG 2505/2507 VRB05KT
BECMG 2515/2518 18006KT
ATIS : +33 2 98 32 02 71



MET'MAP, your aeronautical weather chart ! - Copyright ORBIFLY December 2007 - Disclaimer

ORBIFLY MET'MAP TEAM :

Programming & Development : Alexandra Zaïnal
Concept & original design : Baudouin d'Aumeries
Assistance for programming : Marc-Olivier Méhu
Technical & hardware support : Manuel Goepfert

Contact : metmap@orbifly.com




SOURCES & CREDITS :

   NOAA